createdAt,value
2023-04-19T00:02:21.286Z,9.48
2023-04-19T00:04:49.270Z,9.54
2023-04-19T00:07:18.724Z,9.43
2023-04-19T00:09:45.985Z,9.33
2023-04-19T00:12:13.668Z,9.13
2023-04-19T00:14:41.016Z,9.17
2023-04-19T00:17:08.620Z,9.32
2023-04-19T00:19:36.931Z,8.98
2023-04-19T00:22:04.295Z,9.19
2023-04-19T00:24:31.544Z,9.14
2023-04-19T00:26:59.493Z,9.06
2023-04-19T00:29:26.852Z,9.08
2023-04-19T00:31:54.206Z,8.98
2023-04-19T00:34:21.856Z,8.86
2023-04-19T00:36:49.156Z,8.91
2023-04-19T00:39:16.498Z,8.78
2023-04-19T00:41:44.184Z,8.78
2023-04-19T00:44:11.402Z,8.79
2023-04-19T00:46:39.357Z,8.68
2023-04-19T00:49:07.756Z,8.77
2023-04-19T00:51:35.380Z,8.47
2023-04-19T00:54:04.874Z,8.73
2023-04-19T00:56:34.393Z,8.67
2023-04-19T00:59:02.225Z,8.61
2023-04-19T01:01:30.832Z,8.68
2023-04-19T01:03:59.120Z,8.69
2023-04-19T01:06:28.298Z,8.70
2023-04-19T01:08:55.889Z,8.63
2023-04-19T01:11:24.481Z,8.66
2023-04-19T01:13:52.435Z,8.75
2023-04-19T01:16:20.027Z,8.81
2023-04-19T01:18:49.833Z,8.91
2023-04-19T01:21:17.490Z,8.93
2023-04-19T01:23:45.623Z,9.03
2023-04-19T01:26:13.525Z,9.09
2023-04-19T01:28:40.837Z,9.00
2023-04-19T01:31:09.755Z,9.18
2023-04-19T01:33:38.149Z,9.01
2023-04-19T01:36:09.793Z,9.11
2023-04-19T01:38:37.058Z,9.14
2023-04-19T01:41:04.745Z,9.19
2023-04-19T01:43:31.998Z,9.36
2023-04-19T01:45:59.383Z,9.27
2023-04-19T01:48:27.084Z,9.35
2023-04-19T01:50:54.531Z,9.36
2023-04-19T01:53:22.050Z,9.40
2023-04-19T01:55:50.582Z,9.32
2023-04-19T01:58:18.049Z,9.41
2023-04-19T02:00:46.348Z,9.51
2023-04-19T02:03:14.203Z,9.59
2023-04-19T02:05:42.976Z,9.52
2023-04-19T02:08:10.345Z,9.61
2023-04-19T02:10:37.975Z,9.25
2023-04-19T02:13:05.531Z,9.33
2023-04-19T02:15:34.234Z,9.42
2023-04-19T02:18:02.271Z,9.35
2023-04-19T02:20:29.725Z,9.43
2023-04-19T02:22:57.061Z,9.33
2023-04-19T02:25:24.674Z,9.39
2023-04-19T02:27:52.321Z,9.44
2023-04-19T02:30:20.043Z,9.46
2023-04-19T02:32:51.381Z,9.39
2023-04-19T02:35:19.013Z,9.38
2023-04-19T02:37:46.186Z,9.48
2023-04-19T02:40:13.446Z,9.36
2023-04-19T02:42:41.226Z,9.45
2023-04-19T02:45:09.394Z,9.52
2023-04-19T02:47:37.079Z,9.45
2023-04-19T02:50:05.308Z,9.35
2023-04-19T02:52:33.188Z,9.42
2023-04-19T02:55:00.711Z,9.26
2023-04-19T02:57:28.356Z,9.32
2023-04-19T02:59:55.684Z,9.22
2023-04-19T03:02:23.127Z,9.50
2023-04-19T03:04:51.067Z,9.31
2023-04-19T03:07:18.508Z,9.47
2023-04-19T03:09:46.114Z,9.19
2023-04-19T03:12:13.759Z,9.27
2023-04-19T03:14:42.226Z,9.30
2023-04-19T03:17:09.721Z,9.38
2023-04-19T03:19:37.786Z,9.36
2023-04-19T03:22:05.634Z,9.35
2023-04-19T03:24:34.371Z,9.27
2023-04-19T03:27:05.215Z,9.27
2023-04-19T03:29:32.630Z,9.20
2023-04-19T03:32:00.742Z,9.07
2023-04-19T03:34:29.055Z,8.89
2023-04-19T03:36:56.544Z,9.06
2023-04-19T03:39:25.605Z,8.95
2023-04-19T03:41:54.656Z,8.81
2023-04-19T03:44:22.676Z,8.84
2023-04-19T03:46:50.138Z,8.84
2023-04-19T03:49:18.208Z,8.80
2023-04-19T03:51:47.004Z,8.60
2023-04-19T03:54:14.480Z,8.66
2023-04-19T03:56:42.500Z,8.61
2023-04-19T03:59:10.264Z,8.53
2023-04-19T04:01:42.523Z,8.80
2023-04-19T04:04:12.241Z,8.67
2023-04-19T04:06:39.764Z,8.58
2023-04-19T04:09:07.782Z,8.35
2023-04-19T04:11:35.586Z,8.37
2023-04-19T04:14:03.057Z,8.45
2023-04-19T04:16:31.775Z,8.54
2023-04-19T04:18:59.810Z,8.44
2023-04-19T04:21:27.432Z,8.64
2023-04-19T04:23:56.184Z,8.78
2023-04-19T04:26:26.109Z,8.73
2023-04-19T04:28:54.245Z,8.80
2023-04-19T04:31:21.953Z,8.84
2023-04-19T04:33:51.217Z,8.84
2023-04-19T04:36:19.318Z,8.98
2023-04-19T04:38:47.437Z,8.91
2023-04-19T04:41:15.204Z,8.90
2023-04-19T04:43:42.723Z,8.85
2023-04-19T04:46:10.173Z,8.89
2023-04-19T04:48:38.491Z,8.86
2023-04-19T04:51:06.164Z,8.82
2023-04-19T04:53:33.892Z,8.91
2023-04-19T04:56:02.840Z,8.89
2023-04-19T04:58:30.636Z,9.01
2023-04-19T05:00:58.547Z,9.00
2023-04-19T05:03:28.109Z,9.18
2023-04-19T05:05:56.988Z,8.81
2023-04-19T05:08:27.078Z,8.78
2023-04-19T05:10:55.001Z,8.82
2023-04-19T05:13:22.891Z,8.71
2023-04-19T05:15:50.582Z,8.45
2023-04-19T05:18:17.959Z,8.59
2023-04-19T05:20:46.953Z,8.54
2023-04-19T05:23:14.909Z,8.56
2023-04-19T05:25:42.774Z,8.48
2023-04-19T05:28:10.792Z,8.41
2023-04-19T05:30:40.355Z,8.63
2023-04-19T05:33:07.953Z,8.60
2023-04-19T05:35:35.298Z,8.65
2023-04-19T05:38:03.590Z,8.48
2023-04-19T05:40:31.398Z,8.66
2023-04-19T05:42:59.037Z,8.63
2023-04-19T05:45:27.108Z,8.49
2023-04-19T05:47:54.783Z,8.52
2023-04-19T05:50:24.619Z,8.53
2023-04-19T05:52:52.844Z,8.47
2023-04-19T05:55:20.829Z,8.57
2023-04-19T05:57:48.265Z,8.63
2023-04-19T06:00:16.644Z,8.68
2023-04-19T06:02:45.228Z,8.55
2023-04-19T06:05:13.047Z,8.94
2023-04-19T06:07:47.176Z,8.93
2023-04-19T06:10:23.862Z,8.91
2023-04-19T06:12:51.520Z,8.83
2023-04-19T06:15:18.952Z,8.58
2023-04-19T06:17:46.947Z,8.80
2023-04-19T06:20:14.403Z,8.91
2023-04-19T06:22:46.057Z,8.79
2023-04-19T06:25:13.754Z,8.93
2023-04-19T06:27:41.224Z,8.96
2023-04-19T06:30:08.984Z,8.78
2023-04-19T06:32:36.671Z,8.85
2023-04-19T06:35:06.346Z,8.81
2023-04-19T06:37:34.252Z,8.82
2023-04-19T06:40:01.931Z,8.84
2023-04-19T06:42:29.540Z,8.97
2023-04-19T06:44:59.697Z,9.32
2023-04-19T06:47:27.953Z,9.12
2023-04-19T06:49:55.470Z,9.08
2023-04-19T06:52:23.011Z,9.04
2023-04-19T06:54:51.439Z,8.95
2023-04-19T06:57:19.237Z,9.02
2023-04-19T06:59:46.652Z,8.92
2023-04-19T07:02:14.469Z,9.01
2023-04-19T07:04:41.960Z,9.22
2023-04-19T07:07:09.533Z,9.26
2023-04-19T07:09:37.196Z,9.35
2023-04-19T07:12:04.544Z,9.44
2023-04-19T07:14:31.870Z,9.49
2023-04-19T07:16:59.779Z,9.35
2023-04-19T07:19:28.402Z,9.37
2023-04-19T07:21:55.846Z,9.40
2023-04-19T07:24:23.736Z,9.60
2023-04-19T07:26:51.294Z,9.52
2023-04-19T07:29:19.250Z,9.99
2023-04-19T07:31:46.989Z,10.01
2023-04-19T07:34:14.681Z,9.85
2023-04-19T07:36:42.582Z,10.17
2023-04-19T07:39:10.260Z,10.31
2023-04-19T07:41:37.689Z,10.66
2023-04-19T07:44:05.209Z,10.81
2023-04-19T07:46:33.140Z,10.98
2023-04-19T07:49:00.521Z,11.03
2023-04-19T07:51:27.950Z,10.95
2023-04-19T07:53:55.656Z,11.21
2023-04-19T07:56:23.186Z,10.74
2023-04-19T07:59:04.183Z,10.87
2023-04-19T08:01:35.181Z,11.05
2023-04-19T08:04:03.803Z,11.07
2023-04-19T08:06:32.690Z,10.89
2023-04-19T08:09:00.137Z,10.79
2023-04-19T08:11:27.940Z,10.78
2023-04-19T08:14:08.814Z,11.04
2023-04-19T08:19:09.679Z,11.27
2023-04-19T08:21:41.330Z,11.35
2023-04-19T08:24:09.563Z,11.37
2023-04-19T08:26:36.930Z,11.43
2023-04-19T08:29:04.272Z,11.68
2023-04-19T08:31:32.256Z,12.04
2023-04-19T08:34:00.751Z,12.01
2023-04-19T08:36:39.197Z,11.87
2023-04-19T08:39:24.534Z,12.03
2023-04-19T08:42:10.436Z,12.03
2023-04-19T08:47:30.052Z,12.02
2023-04-19T08:50:17.318Z,12.17
2023-04-19T08:52:58.596Z,12.00
2023-04-19T08:55:29.761Z,11.63
2023-04-19T08:57:58.238Z,11.35
2023-04-19T09:00:25.886Z,11.51
2023-04-19T09:02:56.972Z,11.40
2023-04-19T09:05:24.633Z,11.10
2023-04-19T09:07:52.359Z,11.31
2023-04-19T09:10:21.374Z,11.62
2023-04-19T09:13:06.810Z,11.98
2023-04-19T09:15:43.818Z,12.54
2023-04-19T09:18:11.458Z,12.48
2023-04-19T09:20:47.081Z,12.54
2023-04-19T09:23:17.093Z,12.87
2023-04-19T09:28:34.994Z,12.96
2023-04-19T09:31:33.018Z,12.98
2023-04-19T09:34:18.521Z,12.85
2023-04-19T09:36:48.913Z,12.83
2023-04-19T09:39:32.201Z,12.79
2023-04-19T09:42:00.554Z,12.90
2023-04-19T09:46:59.115Z,13.26
2023-04-19T09:49:41.548Z,13.07
2023-04-19T09:52:15.265Z,13.51
2023-04-19T09:54:44.506Z,13.17
2023-04-19T09:57:12.551Z,13.07
2023-04-19T09:59:40.051Z,13.27
2023-04-19T10:02:10.977Z,13.40
2023-04-19T10:04:57.414Z,13.59
2023-04-19T10:07:30.817Z,14.15
2023-04-19T10:12:52.391Z,14.41
2023-04-19T10:15:22.828Z,14.39
2023-04-19T10:17:51.139Z,14.18
2023-04-19T10:20:27.355Z,14.40
2023-04-19T10:22:55.985Z,13.96
2023-04-19T10:25:30.067Z,14.00
2023-04-19T10:27:58.339Z,13.59
2023-04-19T10:30:29.192Z,14.12
2023-04-19T10:32:58.211Z,14.51
2023-04-19T10:35:27.728Z,14.49
2023-04-19T10:38:13.640Z,14.26
2023-04-19T10:40:57.702Z,14.25
2023-04-19T10:43:29.730Z,14.58
2023-04-19T10:46:09.475Z,14.75
2023-04-19T10:48:39.368Z,14.13
2023-04-19T10:51:19.390Z,14.12
2023-04-19T10:53:54.398Z,13.87
2023-04-19T10:56:34.435Z,13.96
2023-04-19T10:59:03.116Z,14.34
2023-04-19T11:01:38.301Z,14.57
2023-04-19T11:04:06.877Z,14.30
2023-04-19T11:06:34.679Z,14.18
2023-04-19T11:09:10.314Z,14.31
2023-04-19T11:11:38.111Z,14.47
2023-04-19T11:14:09.249Z,14.55
2023-04-19T11:16:45.774Z,14.49
2023-04-19T11:19:17.940Z,14.73
2023-04-19T11:21:47.586Z,14.70
2023-04-19T11:24:21.778Z,14.44
2023-04-19T11:26:49.182Z,14.25
2023-04-19T11:29:17.364Z,14.29
2023-04-19T11:31:47.094Z,14.34
2023-04-19T11:34:15.040Z,14.39
2023-04-19T11:36:51.069Z,14.52
2023-04-19T11:39:19.252Z,14.86
2023-04-19T11:41:49.641Z,15.09
2023-04-19T11:44:20.683Z,15.04
2023-04-19T11:46:59.719Z,14.94
2023-04-19T11:49:32.488Z,15.14
2023-04-19T11:52:04.601Z,15.03
2023-04-19T11:54:34.106Z,15.11
2023-04-19T11:57:09.117Z,14.96
2023-04-19T11:59:37.191Z,15.02
2023-04-19T12:02:10.666Z,14.99
2023-04-19T12:04:39.949Z,15.04
2023-04-19T12:07:07.769Z,15.23
2023-04-19T12:09:36.725Z,15.20
2023-04-19T12:12:04.758Z,15.17
2023-04-19T12:14:32.217Z,15.34
2023-04-19T12:17:14.835Z,15.33
2023-04-19T12:19:46.403Z,15.24
2023-04-19T12:22:22.194Z,15.58
2023-04-19T12:24:53.930Z,15.42
2023-04-19T12:27:21.372Z,15.12
2023-04-19T12:29:48.731Z,15.29
2023-04-19T12:32:16.980Z,15.29
2023-04-19T12:34:44.401Z,15.06
2023-04-19T12:37:11.822Z,14.53
2023-04-19T12:39:39.596Z,14.27
2023-04-19T12:42:07.013Z,14.53
2023-04-19T12:44:34.513Z,14.75
2023-04-19T12:47:02.395Z,14.41
2023-04-19T12:49:29.738Z,14.65
2023-04-19T12:51:57.478Z,14.93
2023-04-19T12:54:25.437Z,14.84
2023-04-19T12:56:53.336Z,14.66
2023-04-19T12:59:22.261Z,14.26
2023-04-19T13:01:50.181Z,14.14
2023-04-19T13:04:18.059Z,14.14
2023-04-19T13:06:46.125Z,14.16
2023-04-19T13:09:14.826Z,14.34
2023-04-19T13:11:42.758Z,14.05
2023-04-19T13:14:10.220Z,13.76
2023-04-19T13:16:38.289Z,13.92
2023-04-19T13:19:06.200Z,13.69
2023-04-19T13:21:33.688Z,13.84
2023-04-19T13:24:01.437Z,13.93
2023-04-19T13:26:28.953Z,13.98
2023-04-19T13:28:56.791Z,14.13
2023-04-19T13:31:27.250Z,13.99
2023-04-19T13:33:55.320Z,14.03
2023-04-19T13:36:23.053Z,14.08
2023-04-19T13:38:50.739Z,14.20
2023-04-19T13:41:18.070Z,14.17
2023-04-19T13:43:45.986Z,14.13
2023-04-19T13:46:14.210Z,13.56
2023-04-19T13:48:41.541Z,13.37
2023-04-19T13:51:09.152Z,12.89
2023-04-19T13:53:36.860Z,12.80
2023-04-19T13:56:04.536Z,12.54
2023-04-19T13:58:32.015Z,12.56
2023-04-19T14:00:59.773Z,12.60
2023-04-19T14:03:27.757Z,12.71
2023-04-19T14:05:55.479Z,12.44
2023-04-19T14:08:22.913Z,12.33
2023-04-19T14:10:51.142Z,12.10
2023-04-19T14:13:18.582Z,12.41
2023-04-19T14:15:46.617Z,12.42
2023-04-19T14:18:14.323Z,12.51
2023-04-19T14:20:41.716Z,12.47
2023-04-19T14:23:09.569Z,12.67
2023-04-19T14:25:37.301Z,12.88
2023-04-19T14:28:04.792Z,12.79
2023-04-19T14:30:32.321Z,12.72
2023-04-19T14:33:00.441Z,12.77
2023-04-19T14:35:30.868Z,13.10
2023-04-19T14:37:58.348Z,13.04
2023-04-19T14:40:26.153Z,13.06
2023-04-19T14:42:53.629Z,13.04
2023-04-19T14:45:21.108Z,13.35
2023-04-19T14:47:50.068Z,13.30
2023-04-19T14:50:17.387Z,13.47
2023-04-19T14:52:44.763Z,13.36
2023-04-19T14:55:12.487Z,13.34
2023-04-19T14:57:39.844Z,13.36
2023-04-19T15:00:08.126Z,13.33
2023-04-19T15:02:36.240Z,13.17
2023-04-19T15:05:04.022Z,13.44
2023-04-19T15:07:31.538Z,13.35
2023-04-19T15:09:59.550Z,13.07
2023-04-19T15:12:26.932Z,13.02
2023-04-19T15:14:54.294Z,13.02
2023-04-19T15:17:22.023Z,12.61
2023-04-19T15:19:49.615Z,12.70
2023-04-19T15:22:17.103Z,12.95
2023-04-19T15:24:44.987Z,13.05
2023-04-19T15:27:13.080Z,13.10
2023-04-19T15:29:41.449Z,13.31
2023-04-19T15:32:09.355Z,13.51
2023-04-19T15:34:37.012Z,13.49
2023-04-19T15:37:06.620Z,13.45
2023-04-19T15:39:34.293Z,13.54
2023-04-19T15:42:02.330Z,13.50
2023-04-19T15:44:30.239Z,13.18
2023-04-19T15:46:58.046Z,13.11
2023-04-19T15:49:25.464Z,13.31
2023-04-19T15:51:52.833Z,13.23
2023-04-19T15:54:22.155Z,13.00
2023-04-19T15:56:49.483Z,13.14
2023-04-19T15:59:17.247Z,13.27
2023-04-19T16:01:45.142Z,13.28
2023-04-19T16:04:13.119Z,13.21
2023-04-19T16:06:40.851Z,13.05
2023-04-19T16:09:09.348Z,13.37
2023-04-19T16:11:37.327Z,13.09
2023-04-19T16:14:04.821Z,12.96
2023-04-19T16:16:34.432Z,13.09
2023-04-19T16:19:02.248Z,12.88
2023-04-19T16:21:29.745Z,12.92
2023-04-19T16:23:57.108Z,12.80
2023-04-19T16:26:24.858Z,12.81
2023-04-19T16:28:52.349Z,12.79
2023-04-19T16:31:19.744Z,12.72
2023-04-19T16:33:47.419Z,12.47
2023-04-19T16:36:15.996Z,12.39
2023-04-19T16:38:43.415Z,12.33
2023-04-19T16:41:11.982Z,12.12
2023-04-19T16:43:39.432Z,12.13
2023-04-19T16:46:07.582Z,12.09
2023-04-19T16:48:35.320Z,11.73
2023-04-19T16:51:02.697Z,12.02
2023-04-19T16:53:31.469Z,12.13
2023-04-19T16:56:00.556Z,11.80
2023-04-19T16:58:27.889Z,11.39
2023-04-19T17:00:57.120Z,11.28
2023-04-19T17:03:25.003Z,11.32
2023-04-19T17:05:52.404Z,11.42
2023-04-19T17:08:21.724Z,11.24
2023-04-19T17:10:49.785Z,11.05
2023-04-19T17:13:17.098Z,10.97
2023-04-19T17:15:44.609Z,11.20
2023-04-19T17:18:12.457Z,10.95
2023-04-19T17:20:39.927Z,10.80
2023-04-19T17:23:07.333Z,10.95
2023-04-19T17:25:35.113Z,11.30
2023-04-19T17:28:02.539Z,11.28
2023-04-19T17:30:29.912Z,10.81
2023-04-19T17:32:57.646Z,10.91
2023-04-19T17:35:26.307Z,10.97
2023-04-19T17:37:53.622Z,11.05
2023-04-19T17:40:21.577Z,11.00
2023-04-19T17:42:48.938Z,10.99
2023-04-19T17:45:16.657Z,11.00
2023-04-19T17:47:44.592Z,10.92
2023-04-19T17:50:13.717Z,10.67
2023-04-19T17:52:42.184Z,10.71
2023-04-19T17:55:09.944Z,10.58
2023-04-19T17:57:37.390Z,10.64
2023-04-19T18:00:07.931Z,10.79
2023-04-19T18:02:36.798Z,10.86
2023-04-19T18:05:05.056Z,10.83
2023-04-19T18:07:32.419Z,10.73
2023-04-19T18:10:00.456Z,10.66
2023-04-19T18:12:28.801Z,10.40
2023-04-19T18:14:57.244Z,10.60
2023-04-19T18:17:24.691Z,10.84
2023-04-19T18:19:52.772Z,10.67
2023-04-19T18:22:20.190Z,10.70
2023-04-19T18:24:47.619Z,10.60
2023-04-19T18:27:15.993Z,10.47
2023-04-19T18:29:43.862Z,10.53
2023-04-19T18:32:11.626Z,10.67
2023-04-19T18:34:39.796Z,10.36
2023-04-19T18:37:15.836Z,10.23
2023-04-19T18:39:44.075Z,10.12
2023-04-19T18:42:11.691Z,10.19
2023-04-19T18:44:52.850Z,10.36
2023-04-19T18:47:22.453Z,10.33
2023-04-19T18:50:03.592Z,10.27
2023-04-19T18:52:34.308Z,10.08
2023-04-19T18:55:02.469Z,9.97
2023-04-19T18:57:34.245Z,10.05
2023-04-19T19:00:06.315Z,10.04
2023-04-19T19:02:36.432Z,10.09
2023-04-19T19:05:07.967Z,9.63
2023-04-19T19:07:37.980Z,9.52
2023-04-19T19:10:17.316Z,9.62
2023-04-19T19:12:48.494Z,9.72
2023-04-19T19:15:16.712Z,9.77
2023-04-19T19:17:49.240Z,9.83
2023-04-19T19:20:19.635Z,9.77
2023-04-19T19:22:47.237Z,9.83
2023-04-19T19:25:14.836Z,9.88
2023-04-19T19:28:02.233Z,9.77
2023-04-19T19:30:34.030Z,9.63
2023-04-19T19:33:03.053Z,9.32
2023-04-19T19:35:30.812Z,9.40
2023-04-19T19:37:58.527Z,9.12
2023-04-19T19:40:29.126Z,9.05
2023-04-19T19:42:58.825Z,9.35
2023-04-19T19:45:31.018Z,9.42
2023-04-19T19:48:01.815Z,9.21
2023-04-19T19:53:00.933Z,9.42
2023-04-19T19:55:29.015Z,9.20
2023-04-19T20:02:58.985Z,8.87
2023-04-19T20:05:27.312Z,8.96
2023-04-19T20:08:09.782Z,9.22
2023-04-19T20:10:39.322Z,9.10
2023-04-19T20:13:06.952Z,9.22
2023-04-19T20:15:35.968Z,9.31
2023-04-19T20:18:04.478Z,9.12
2023-04-19T20:20:32.141Z,9.06
2023-04-19T20:22:59.522Z,9.30
2023-04-19T20:25:27.350Z,9.45
2023-04-19T20:27:55.245Z,9.55
2023-04-19T20:30:22.634Z,9.45
2023-04-19T20:32:50.671Z,9.43
2023-04-19T20:35:18.291Z,9.32
2023-04-19T20:37:46.754Z,9.31
2023-04-19T20:40:16.325Z,9.41
2023-04-19T20:42:45.090Z,9.44
2023-04-19T20:45:14.517Z,9.34
2023-04-19T20:47:43.010Z,9.27
2023-04-19T20:50:10.781Z,9.38
2023-04-19T20:52:38.360Z,9.38
2023-04-19T20:55:06.819Z,9.38
2023-04-19T20:57:34.101Z,9.51
2023-04-19T21:00:01.523Z,9.64
2023-04-19T21:02:31.241Z,9.64
2023-04-19T21:04:58.587Z,9.78
2023-04-19T21:07:26.001Z,9.51
2023-04-19T21:09:53.697Z,9.70
2023-04-19T21:12:21.361Z,9.48
2023-04-19T21:14:51.020Z,9.59
2023-04-19T21:17:18.944Z,9.74
2023-04-19T21:19:46.290Z,9.39
2023-04-19T21:22:13.685Z,9.35
2023-04-19T21:24:41.388Z,9.39
2023-04-19T21:27:08.792Z,9.36
2023-04-19T21:29:36.247Z,9.34
2023-04-19T21:32:03.958Z,9.27
2023-04-19T21:34:31.434Z,9.15
2023-04-19T21:36:58.741Z,9.23
2023-04-19T21:39:26.389Z,9.27
2023-04-19T21:41:53.673Z,9.24
2023-04-19T21:44:20.945Z,9.17
2023-04-19T21:46:48.686Z,9.17
2023-04-19T21:49:16.248Z,9.00
2023-04-19T21:51:43.795Z,8.87
2023-04-19T21:54:15.786Z,8.87
2023-04-19T21:56:47.724Z,8.71
2023-04-19T21:59:15.703Z,8.80
2023-04-19T22:01:43.355Z,8.79
2023-04-19T22:04:12.296Z,8.66
2023-04-19T22:06:40.647Z,8.71
2023-04-19T22:09:07.977Z,8.63
2023-04-19T22:11:35.703Z,8.80
2023-04-19T22:14:03.184Z,8.68
2023-04-19T22:16:32.930Z,8.74
2023-04-19T22:19:01.704Z,8.67
2023-04-19T22:21:29.048Z,8.65
2023-04-19T22:23:56.458Z,8.73
2023-04-19T22:26:26.188Z,8.69
2023-04-19T22:28:54.057Z,8.37
2023-04-19T22:31:21.634Z,8.41
2023-04-19T22:33:49.227Z,8.45
2023-04-19T22:36:16.857Z,8.14
2023-04-19T22:38:44.248Z,8.30
2023-04-19T22:41:11.828Z,8.15
2023-04-19T22:43:39.275Z,8.19
2023-04-19T22:46:06.646Z,8.00
2023-04-19T22:48:34.385Z,8.06
2023-04-19T22:51:02.010Z,8.13
2023-04-19T22:53:29.446Z,7.85
2023-04-19T22:55:57.081Z,8.00
2023-04-19T22:58:25.336Z,8.03
2023-04-19T23:00:52.800Z,8.38
2023-04-19T23:03:20.608Z,8.25
2023-04-19T23:05:48.182Z,8.21
2023-04-19T23:08:15.838Z,8.38
2023-04-19T23:10:43.786Z,8.50
2023-04-19T23:13:11.281Z,8.25
2023-04-19T23:15:39.753Z,7.90
2023-04-19T23:18:07.943Z,8.01
2023-04-19T23:20:35.876Z,8.13
2023-04-19T23:23:03.593Z,8.13
2023-04-19T23:25:31.568Z,8.25
2023-04-19T23:27:58.937Z,8.32
2023-04-19T23:30:26.366Z,8.33
2023-04-19T23:32:53.998Z,8.31
2023-04-19T23:35:21.395Z,8.21
2023-04-19T23:37:48.781Z,8.14
2023-04-19T23:40:16.327Z,8.12
2023-04-19T23:42:43.634Z,8.16
2023-04-19T23:45:11.646Z,8.34
2023-04-19T23:47:39.343Z,8.13
2023-04-19T23:50:07.220Z,8.38
2023-04-19T23:52:35.769Z,7.99
2023-04-19T23:55:03.735Z,8.07
2023-04-19T23:57:34.390Z,8.13
